createdAt,value
2023-08-11T00:02:33.549Z,14.11
2023-08-11T00:05:39.464Z,14.13
2023-08-11T00:08:42.201Z,14.08
2023-08-11T00:11:44.865Z,13.99
2023-08-11T00:14:47.686Z,13.90
2023-08-11T00:17:58.696Z,13.82
2023-08-11T00:21:01.484Z,13.77
2023-08-11T00:24:04.432Z,13.74
2023-08-11T00:27:07.886Z,13.70
2023-08-11T00:30:12.283Z,13.66
2023-08-11T00:33:15.324Z,13.62
2023-08-11T00:36:18.408Z,13.58
2023-08-11T00:39:21.088Z,13.55
2023-08-11T00:42:23.737Z,13.51
2023-08-11T00:45:26.592Z,13.48
2023-08-11T00:48:43.922Z,13.43
2023-08-11T00:51:49.954Z,13.39
2023-08-11T00:54:55.320Z,13.39
2023-08-11T00:57:58.186Z,13.33
2023-08-11T01:01:01.195Z,13.25
2023-08-11T01:04:08.979Z,13.20
2023-08-11T01:07:35.179Z,13.19
2023-08-11T01:10:49.555Z,13.08
2023-08-11T01:14:04.909Z,12.97
2023-08-11T01:17:11.196Z,12.92
2023-08-11T01:20:17.424Z,12.84
2023-08-11T01:23:22.245Z,12.80
2023-08-11T01:26:25.317Z,12.71
2023-08-11T01:29:28.199Z,12.69
2023-08-11T01:32:31.100Z,12.72
2023-08-11T01:35:40.675Z,12.73
2023-08-11T01:38:45.010Z,12.66
2023-08-11T01:41:48.080Z,12.58
2023-08-11T01:44:51.006Z,12.47
2023-08-11T01:47:55.013Z,12.40
2023-08-11T01:50:57.880Z,12.46
2023-08-11T01:54:00.684Z,12.37
2023-08-11T01:57:04.044Z,12.26
2023-08-11T02:00:14.539Z,12.18
2023-08-11T02:03:17.258Z,12.12
2023-08-11T02:06:19.976Z,12.06
2023-08-11T02:09:23.679Z,11.98
2023-08-11T02:12:26.516Z,11.94
2023-08-11T02:15:29.467Z,11.90
2023-08-11T02:18:32.539Z,11.85
2023-08-11T02:21:38.749Z,11.86
2023-08-11T02:24:41.373Z,11.80
2023-08-11T02:27:45.067Z,11.74
2023-08-11T02:30:48.621Z,11.65
2023-08-11T02:33:51.303Z,11.59
2023-08-11T02:36:54.036Z,11.53
2023-08-11T02:39:56.944Z,11.51
2023-08-11T02:42:59.747Z,11.49
2023-08-11T02:46:02.565Z,11.48
2023-08-11T02:49:05.387Z,11.44
2023-08-11T02:52:08.571Z,11.42
2023-08-11T02:55:12.733Z,11.46
2023-08-11T02:58:15.562Z,11.43
2023-08-11T03:01:19.060Z,11.42
2023-08-11T03:04:22.010Z,11.45
2023-08-11T03:07:25.521Z,11.47
2023-08-11T03:10:29.899Z,11.42
2023-08-11T03:13:34.180Z,11.41
2023-08-11T03:16:37.318Z,11.52
2023-08-11T03:19:40.172Z,11.62
2023-08-11T03:22:45.257Z,11.49
2023-08-11T03:25:50.494Z,11.46
2023-08-11T03:28:55.880Z,11.38
2023-08-11T03:31:59.513Z,11.34
2023-08-11T03:35:03.981Z,11.24
2023-08-11T03:38:07.349Z,11.18
2023-08-11T03:41:10.924Z,11.16
2023-08-11T03:44:14.097Z,11.15
2023-08-11T03:47:16.915Z,11.14
2023-08-11T03:50:22.749Z,11.14
2023-08-11T03:53:25.408Z,11.18
2023-08-11T03:56:28.066Z,11.24
2023-08-11T03:59:30.915Z,11.31
2023-08-11T04:02:36.442Z,11.33
2023-08-11T04:05:40.530Z,11.34
2023-08-11T04:08:43.655Z,11.33
2023-08-11T04:11:46.423Z,11.32
2023-08-11T04:14:49.288Z,11.39
2023-08-11T04:17:52.828Z,11.47
2023-08-11T04:20:55.640Z,11.58
2023-08-11T04:23:59.179Z,11.81
2023-08-11T04:27:03.118Z,12.15
2023-08-11T04:30:07.197Z,12.41
2023-08-11T04:33:10.597Z,12.91
2023-08-11T04:36:14.558Z,13.27
2023-08-11T04:39:18.222Z,13.51
2023-08-11T04:42:21.490Z,13.94
2023-08-11T04:45:25.192Z,14.32
2023-08-11T04:48:28.101Z,14.63
2023-08-11T04:51:30.992Z,14.90
2023-08-11T04:54:33.892Z,14.89
2023-08-11T04:57:37.239Z,15.61
2023-08-11T05:00:41.834Z,15.84
2023-08-11T05:03:44.690Z,16.07
2023-08-11T05:06:47.488Z,16.62
2023-08-11T05:09:50.644Z,16.68
2023-08-11T05:12:53.477Z,16.96
2023-08-11T05:15:56.298Z,17.42
2023-08-11T05:18:59.020Z,17.50
2023-08-11T05:22:01.832Z,17.30
2023-08-11T05:25:05.743Z,17.33
2023-08-11T05:28:11.122Z,17.12
2023-08-11T05:31:16.649Z,17.23
2023-08-11T05:34:19.340Z,17.77
2023-08-11T05:37:24.229Z,18.20
2023-08-11T05:44:02.518Z,19.40
2023-08-11T05:47:07.306Z,19.83
2023-08-11T05:53:28.486Z,20.96
2023-08-11T05:56:31.311Z,21.44
2023-08-11T05:59:34.165Z,21.55
2023-08-11T06:02:37.010Z,22.27
2023-08-11T06:05:39.786Z,22.14
2023-08-11T06:08:42.569Z,22.73
2023-08-11T06:11:48.122Z,22.74
2023-08-11T06:14:56.758Z,22.84
2023-08-11T06:18:02.781Z,23.45
2023-08-11T06:21:37.228Z,24.26
2023-08-11T06:24:45.848Z,24.75
2023-08-11T06:28:46.058Z,24.35
2023-08-11T06:32:35.482Z,23.60
2023-08-11T06:35:38.632Z,23.62
2023-08-11T06:38:41.535Z,23.79
2023-08-11T06:41:44.604Z,23.54
2023-08-11T06:44:48.497Z,23.50
2023-08-11T06:47:51.215Z,23.61
2023-08-11T06:50:54.030Z,24.01
2023-08-11T06:54:01.043Z,24.33
2023-08-11T06:57:33.996Z,24.88
2023-08-11T07:00:38.128Z,25.43
2023-08-11T07:03:43.891Z,25.88
2023-08-11T07:07:18.362Z,26.58
2023-08-11T07:10:12.898Z,27.26
2023-08-11T07:13:15.750Z,28.39
2023-08-11T07:16:22.174Z,27.99
2023-08-11T07:19:26.296Z,28.73
2023-08-11T07:22:40.666Z,29.97
2023-08-11T07:25:44.436Z,30.37
2023-08-11T07:28:47.811Z,30.75
2023-08-11T07:31:50.507Z,29.64
2023-08-11T07:34:53.223Z,30.51
2023-08-11T07:37:56.337Z,31.18
2023-08-11T07:40:59.037Z,31.54
2023-08-11T07:44:01.701Z,30.95
2023-08-11T07:47:04.667Z,30.52
2023-08-11T07:50:08.019Z,30.45
2023-08-11T07:53:10.999Z,31.11
2023-08-11T07:56:14.360Z,32.24
2023-08-11T07:59:17.489Z,33.32
2023-08-11T08:02:20.370Z,32.23
2023-08-11T08:05:23.401Z,33.28
2023-08-11T08:08:26.097Z,32.24
2023-08-11T08:11:28.784Z,32.99
2023-08-11T08:14:31.655Z,33.62
2023-08-11T08:17:35.080Z,33.43
2023-08-11T08:20:37.819Z,33.57
2023-08-11T08:23:40.483Z,34.17
2023-08-11T08:26:44.723Z,34.50
2023-08-11T08:29:53.260Z,35.09
2023-08-11T08:32:56.249Z,35.84
2023-08-11T08:35:59.026Z,34.79
2023-08-11T08:39:01.762Z,35.22
2023-08-11T08:42:06.955Z,35.11
2023-08-11T08:45:10.182Z,35.43
2023-08-11T08:48:26.841Z,35.21
2023-08-11T08:51:31.465Z,35.73
2023-08-11T08:54:35.193Z,35.55
2023-08-11T08:57:38.577Z,35.59
2023-08-11T09:00:42.148Z,36.07
2023-08-11T09:03:46.022Z,36.58
2023-08-11T09:06:49.426Z,37.54
2023-08-11T09:09:52.526Z,36.50
2023-08-11T09:12:55.331Z,35.99
2023-08-11T09:16:00.835Z,36.25
2023-08-11T09:19:06.201Z,34.78
2023-08-11T09:22:14.519Z,35.18
2023-08-11T09:25:17.620Z,36.55
2023-08-11T09:28:20.325Z,36.35
2023-08-11T09:31:27.331Z,36.22
2023-08-11T09:34:30.894Z,38.02
2023-08-11T09:37:33.610Z,37.33
2023-08-11T09:40:37.122Z,37.37
2023-08-11T09:43:40.320Z,36.84
2023-08-11T09:46:44.012Z,37.99
2023-08-11T09:49:46.977Z,38.16
2023-08-11T09:52:50.080Z,37.50
2023-08-11T09:55:56.339Z,36.96
2023-08-11T09:59:03.327Z,36.70
2023-08-11T10:02:13.231Z,37.18
2023-08-11T10:05:18.444Z,37.72
2023-08-11T10:08:23.543Z,37.55
2023-08-11T10:11:29.585Z,37.27
2023-08-11T10:14:35.744Z,37.32
2023-08-11T10:17:39.818Z,38.19
2023-08-11T10:20:43.028Z,37.88
2023-08-11T10:23:46.500Z,38.78
2023-08-11T10:26:50.529Z,38.23
2023-08-11T10:29:55.326Z,38.02
2023-08-11T10:33:10.374Z,35.76
2023-08-11T10:36:17.583Z,37.06
2023-08-11T10:39:21.711Z,36.49
2023-08-11T10:42:24.746Z,37.12
2023-08-11T10:45:29.124Z,38.83
2023-08-11T10:48:33.998Z,39.16
2023-08-11T10:51:38.947Z,39.34
2023-08-11T10:54:51.071Z,37.44
2023-08-11T10:58:13.099Z,37.06
2023-08-11T11:01:16.056Z,36.89
2023-08-11T11:04:21.132Z,36.76
2023-08-11T11:07:24.837Z,37.39
2023-08-11T11:10:39.671Z,37.67
2023-08-11T11:13:52.050Z,38.04
2023-08-11T11:16:56.418Z,37.86
2023-08-11T11:20:01.105Z,36.85
2023-08-11T11:23:06.786Z,39.01
2023-08-11T11:26:09.704Z,39.70
2023-08-11T11:29:13.166Z,38.92
2023-08-11T11:32:18.079Z,39.01
2023-08-11T11:35:20.844Z,38.68
2023-08-11T11:38:23.580Z,37.42
2023-08-11T11:41:26.459Z,36.59
2023-08-11T11:44:30.590Z,34.70
2023-08-11T11:47:34.629Z,37.42
2023-08-11T11:50:37.633Z,38.43
2023-08-11T11:53:41.270Z,38.47
2023-08-11T11:56:54.214Z,38.18
2023-08-11T12:00:11.696Z,39.51
2023-08-11T12:03:16.396Z,39.12
2023-08-11T12:06:20.433Z,38.97
2023-08-11T12:09:23.257Z,39.40
2023-08-11T12:12:28.119Z,39.79
2023-08-11T12:15:32.546Z,39.37
2023-08-11T12:18:36.264Z,39.38
2023-08-11T12:21:39.075Z,39.89
2023-08-11T12:24:41.871Z,39.59
2023-08-11T12:27:45.752Z,39.57
2023-08-11T12:30:49.378Z,39.10
2023-08-11T12:33:52.201Z,38.58
2023-08-11T12:36:55.118Z,39.21
2023-08-11T12:39:57.750Z,39.49
2023-08-11T12:43:00.465Z,39.54
2023-08-11T12:46:03.316Z,37.22
2023-08-11T12:49:06.384Z,38.45
2023-08-11T12:52:09.321Z,37.89
2023-08-11T12:55:13.226Z,34.20
2023-08-11T12:58:27.575Z,32.06
2023-08-11T13:01:30.460Z,35.37
2023-08-11T13:04:33.294Z,36.04
2023-08-11T13:07:38.055Z,38.24
2023-08-11T13:10:41.076Z,38.43
2023-08-11T13:13:43.784Z,38.58
2023-08-11T13:16:47.073Z,37.90
2023-08-11T13:19:49.867Z,37.36
2023-08-11T13:22:52.650Z,38.41
2023-08-11T13:25:55.310Z,36.60
2023-08-11T13:28:59.844Z,33.19
2023-08-11T13:32:02.620Z,35.51
2023-08-11T13:35:06.459Z,37.21
2023-08-11T13:38:09.314Z,37.05
2023-08-11T13:41:12.213Z,37.52
2023-08-11T13:44:15.049Z,36.94
2023-08-11T13:47:18.343Z,37.66
2023-08-11T13:50:21.028Z,38.03
2023-08-11T13:53:23.860Z,36.29
2023-08-11T13:56:26.572Z,34.65
2023-08-11T13:59:29.274Z,32.36
2023-08-11T14:02:32.174Z,32.02
2023-08-11T14:05:35.855Z,32.10
2023-08-11T14:08:38.713Z,32.26
2023-08-11T14:11:41.411Z,31.87
2023-08-11T14:14:44.221Z,31.46
2023-08-11T14:17:47.078Z,31.50
2023-08-11T14:20:49.822Z,30.04
2023-08-11T14:23:52.566Z,30.52
2023-08-11T14:26:55.466Z,30.18
2023-08-11T14:29:58.297Z,30.58
2023-08-11T14:33:01.365Z,30.62
2023-08-11T14:39:14.885Z,30.47
2023-08-11T14:42:19.122Z,30.25
2023-08-11T14:45:21.957Z,30.14
2023-08-11T14:48:27.001Z,30.04
2023-08-11T14:51:30.845Z,30.06
2023-08-11T14:54:33.810Z,29.17
2023-08-11T14:57:36.522Z,29.33
2023-08-11T15:00:39.414Z,28.96
2023-08-11T15:03:42.869Z,28.85
2023-08-11T15:06:45.763Z,29.06
2023-08-11T15:09:48.446Z,29.06
2023-08-11T15:12:51.454Z,29.10
2023-08-11T15:15:54.277Z,29.09
2023-08-11T15:18:57.034Z,28.75
2023-08-11T15:21:59.869Z,28.60
2023-08-11T15:25:05.619Z,28.53
2023-08-11T15:28:08.358Z,28.59
2023-08-11T15:31:11.319Z,28.55
2023-08-11T15:34:14.074Z,28.28
2023-08-11T15:37:16.757Z,28.13
2023-08-11T15:40:19.461Z,28.11
2023-08-11T15:43:22.150Z,28.04
2023-08-11T15:46:24.891Z,28.05
2023-08-11T15:49:27.994Z,27.90
2023-08-11T15:52:30.756Z,27.79
2023-08-11T15:55:36.613Z,27.50
2023-08-11T15:58:41.333Z,27.40
2023-08-11T16:01:52.737Z,27.36
2023-08-11T16:05:02.483Z,27.41
2023-08-11T16:08:05.835Z,26.97
2023-08-11T16:11:08.719Z,27.04
2023-08-11T16:14:13.182Z,27.04
2023-08-11T16:17:16.022Z,26.95
2023-08-11T16:20:18.716Z,26.82
2023-08-11T16:23:21.358Z,26.68
2023-08-11T16:26:24.103Z,26.69
2023-08-11T16:29:26.860Z,26.54
2023-08-11T16:32:29.675Z,26.46
2023-08-11T16:35:32.444Z,26.43
2023-08-11T16:38:35.163Z,26.29
2023-08-11T16:41:37.919Z,26.17
2023-08-11T16:44:40.661Z,26.02
2023-08-11T16:47:43.444Z,25.95
2023-08-11T16:50:46.938Z,25.89
2023-08-11T16:53:49.796Z,25.78
2023-08-11T16:56:52.491Z,25.63
2023-08-11T16:59:55.369Z,25.54
2023-08-11T17:02:58.196Z,25.46
2023-08-11T17:06:00.981Z,25.35
2023-08-11T17:09:05.382Z,25.27
2023-08-11T17:12:08.900Z,25.10
2023-08-11T17:15:12.254Z,24.87
2023-08-11T17:18:15.058Z,24.84
2023-08-11T17:21:20.870Z,24.70
2023-08-11T17:24:23.568Z,24.54
2023-08-11T17:27:26.270Z,24.41
2023-08-11T17:30:30.967Z,24.26
2023-08-11T17:33:33.765Z,24.04
2023-08-11T17:36:36.729Z,23.92
2023-08-11T17:39:39.542Z,23.74
2023-08-11T17:42:42.485Z,23.60
2023-08-11T17:48:47.958Z,23.30
2023-08-11T17:51:50.618Z,23.12
2023-08-11T17:54:53.469Z,22.94
2023-08-11T17:57:56.308Z,22.71
2023-08-11T18:00:59.402Z,22.54
2023-08-11T18:04:06.015Z,22.37
2023-08-11T18:07:10.072Z,22.21
2023-08-11T18:10:12.851Z,22.05
2023-08-11T18:13:15.792Z,21.86
2023-08-11T18:16:18.521Z,21.75
2023-08-11T18:19:21.192Z,21.60
2023-08-11T18:22:23.953Z,21.45
2023-08-11T18:25:26.762Z,21.32
2023-08-11T18:28:29.449Z,21.19
2023-08-11T18:31:32.151Z,21.10
2023-08-11T18:34:35.005Z,20.96
2023-08-11T18:37:37.935Z,20.82
2023-08-11T18:40:40.685Z,20.66
2023-08-11T18:43:43.520Z,20.51
2023-08-11T18:46:46.246Z,20.41
2023-08-11T18:49:49.120Z,20.26
2023-08-11T18:52:51.824Z,20.14
2023-08-11T18:55:54.604Z,20.04
2023-08-11T18:58:57.331Z,19.88
2023-08-11T19:02:00.097Z,19.78
2023-08-11T19:05:02.926Z,19.72
2023-08-11T19:08:07.725Z,19.63
2023-08-11T19:11:10.489Z,19.47
2023-08-11T19:14:13.795Z,19.39
2023-08-11T19:17:16.584Z,19.30
2023-08-11T19:20:19.613Z,19.21
2023-08-11T19:23:22.467Z,19.13
2023-08-11T19:26:25.399Z,19.05
2023-08-11T19:29:28.150Z,18.94
2023-08-11T19:32:30.886Z,18.83
2023-08-11T19:35:33.738Z,18.71
2023-08-11T19:38:42.380Z,18.67
2023-08-11T19:41:45.078Z,18.62
2023-08-11T19:44:47.848Z,18.60
2023-08-11T19:47:50.660Z,18.53
2023-08-11T19:50:53.693Z,18.46
2023-08-11T19:53:56.383Z,18.48
2023-08-11T19:56:59.126Z,18.50
2023-08-11T20:00:02.047Z,18.48
2023-08-11T20:03:16.871Z,18.39
2023-08-11T20:06:19.708Z,18.29
2023-08-11T20:09:25.252Z,18.22
2023-08-11T20:12:28.033Z,18.16
2023-08-11T20:15:31.289Z,18.06
2023-08-11T20:18:34.091Z,17.99
2023-08-11T20:21:37.103Z,18.03
2023-08-11T20:24:39.808Z,17.94
2023-08-11T20:27:42.638Z,17.92
2023-08-11T20:30:45.538Z,17.89
2023-08-11T20:33:48.667Z,17.85
2023-08-11T20:36:51.739Z,17.79
2023-08-11T20:39:54.411Z,17.71
2023-08-11T20:42:59.842Z,17.67
2023-08-11T20:46:02.647Z,17.54
2023-08-11T20:49:05.419Z,17.42
2023-08-11T20:52:08.082Z,17.35
2023-08-11T20:55:10.950Z,17.22
2023-08-11T20:58:13.672Z,17.14
2023-08-11T21:01:16.458Z,17.07
2023-08-11T21:04:19.315Z,17.02
2023-08-11T21:07:22.029Z,16.96
2023-08-11T21:10:24.740Z,16.93
2023-08-11T21:13:27.439Z,16.93
2023-08-11T21:16:30.400Z,16.88
2023-08-11T21:19:33.267Z,16.84
2023-08-11T21:22:36.013Z,16.78
2023-08-11T21:25:38.695Z,16.76
2023-08-11T21:28:41.472Z,16.71
2023-08-11T21:31:44.301Z,16.71
2023-08-11T21:34:47.104Z,16.67
2023-08-11T21:37:50.259Z,16.59
2023-08-11T21:40:52.932Z,16.52
2023-08-11T21:43:55.680Z,16.38
2023-08-11T21:46:58.601Z,16.28
2023-08-11T21:50:01.800Z,16.20
2023-08-11T21:53:17.115Z,16.16
2023-08-11T21:56:24.258Z,16.15
2023-08-11T21:59:28.543Z,16.07
2023-08-11T22:02:31.354Z,16.03
2023-08-11T22:05:34.225Z,15.86
2023-08-11T22:08:36.946Z,15.73
2023-08-11T22:11:45.400Z,15.61
2023-08-11T22:14:48.322Z,15.49
2023-08-11T22:17:51.110Z,15.41
2023-08-11T22:20:53.898Z,15.38
2023-08-11T22:23:57.167Z,15.30
2023-08-11T22:26:59.849Z,15.23
2023-08-11T22:30:03.931Z,15.16
2023-08-11T22:33:07.127Z,15.09
2023-08-11T22:36:09.920Z,15.08
2023-08-11T22:39:12.714Z,15.06
2023-08-11T22:42:15.491Z,15.05
2023-08-11T22:45:18.331Z,15.03
2023-08-11T22:48:21.269Z,15.02
2023-08-11T22:51:24.118Z,14.97
2023-08-11T22:54:26.876Z,14.90
2023-08-11T22:57:29.637Z,14.87
2023-08-11T23:00:32.521Z,14.86
2023-08-11T23:03:35.355Z,14.81
2023-08-11T23:06:38.005Z,14.75
2023-08-11T23:09:40.812Z,14.74
2023-08-11T23:12:43.685Z,14.71
2023-08-11T23:15:46.401Z,14.67
2023-08-11T23:18:49.634Z,14.61
2023-08-11T23:21:52.407Z,14.55
2023-08-11T23:24:55.406Z,14.45
2023-08-11T23:27:58.225Z,14.35
2023-08-11T23:31:00.955Z,14.28
2023-08-11T23:34:03.876Z,14.23
2023-08-11T23:37:06.680Z,14.27
2023-08-11T23:40:10.246Z,14.25
2023-08-11T23:43:13.855Z,14.18
2023-08-11T23:46:16.594Z,14.05
2023-08-11T23:49:19.416Z,13.95
2023-08-11T23:52:24.421Z,13.92
2023-08-11T23:55:28.024Z,13.84
2023-08-11T23:58:31.046Z,13.77
